Terminal Aerodrome Forecast
Issued by NWS Springfield, MO

Home | Current Version | Previous Version | Text Only | Print | Product List | Glossary On
Versions: 1 2 3 4 5 6 7 8 9 10 11 12 13 14 15 16 17 18
000
FTUS43 KSGF 271700
TAFSGF
TAF
KSGF 271720Z 2718/2818 19018G27KT P6SM BKN250
     FM272200 20012G18KT P6SM BKN250
     FM280300 23010KT P6SM SCT050 BKN150
      TEMPO 2805/2809 5SM -TSRA BR BKN040CB
     FM280900 32009G18KT P6SM VCSH SCT020 BKN040 OVC100
     FM281200 35006KT P6SM SCT200=

USA.gov is the U.S. government's official web portal to all federal, state and local government web resources and services.